RYR4839 LFML-EBCI
Flight info
| Callsign | RYR4839 |
|---|---|
| Flight time | 1h 37m |
| Altitude | 32000 |
| Route | ETREK DCT MADOT DCT MOPEM DCT CACHI DCT AVLON DCT OKRIX DCT BRY DCT CLM DCT KOPOR DCT SOMIL DCT BELDI DCT VEKIN Z173 ARVOL |
| Aircraft | B738/M-SDE2E3FGHIRWXY/LB1 |
Departure
| Time | 2026-04-27 16:15 |
|---|---|
| Airport | Marseille Provence Airport (LFML) |
Arrival
| Time | 2026-04-27 17:53 |
|---|---|
| Airport | Brussels South Charleroi Airport (EBCI) |
| Time | Latitude | Longitude | Altitude | Speed | Heading |
|---|---|---|---|---|---|
| 2026-04-27 15:33 | 43.44027 | 5.21867 | 35 ft | 0 kts | 134° |
| 2026-04-27 16:05 | 43.44024 | 5.21873 | 35 ft | 2 kts | 134° |
| 2026-04-27 16:05 | 43.44001 | 5.21904 | 36 ft | 7 kts | 134° |
| 2026-04-27 16:06 | 43.43968 | 5.21951 | 36 ft | 5 kts | 134° |
| 2026-04-27 16:06 | 43.43964 | 5.21949 | 36 ft | 1 kts | 187° |
| 2026-04-27 16:06 | 43.43953 | 5.21933 | 36 ft | 4 kts | 229° |
| 2026-04-27 16:06 | 43.43917 | 5.21881 | 36 ft | 10 kts | 224° |
| 2026-04-27 16:07 | 43.43923 | 5.21786 | 35 ft | 13 kts | 312° |
| 2026-04-27 16:07 | 43.43978 | 5.21694 | 36 ft | 12 kts | 291° |
| 2026-04-27 16:07 | 43.43952 | 5.21597 | 36 ft | 11 kts | 224° |
| 2026-04-27 16:07 | 43.43920 | 5.21511 | 36 ft | 10 kts | 274° |
| 2026-04-27 16:08 | 43.43961 | 5.21431 | 36 ft | 10 kts | 314° |
| 2026-04-27 16:08 | 43.44010 | 5.21362 | 36 ft | 10 kts | 314° |
| 2026-04-27 16:08 | 43.44057 | 5.21294 | 35 ft | 10 kts | 314° |
| 2026-04-27 16:08 | 43.44103 | 5.21228 | 36 ft | 9 kts | 315° |
| 2026-04-27 16:09 | 43.44149 | 5.21162 | 36 ft | 10 kts | 313° |
| 2026-04-27 16:09 | 43.44247 | 5.21021 | 36 ft | 10 kts | 311° |
| 2026-04-27 16:09 | 43.44288 | 5.20940 | 36 ft | 11 kts | 300° |
| 2026-04-27 16:10 | 43.44374 | 5.20775 | 36 ft | 10 kts | 314° |
| 2026-04-27 16:10 | 43.44471 | 5.20634 | 36 ft | 10 kts | 313° |
| 2026-04-27 16:11 | 43.44519 | 5.20567 | 36 ft | 10 kts | 314° |
| 2026-04-27 16:11 | 43.44619 | 5.20424 | 36 ft | 9 kts | 314° |
| 2026-04-27 16:12 | 43.44719 | 5.20283 | 35 ft | 11 kts | 314° |
| 2026-04-27 16:12 | 43.44771 | 5.20209 | 36 ft | 11 kts | 314° |
| 2026-04-27 16:12 | 43.44856 | 5.20088 | 36 ft | 8 kts | 314° |
| 2026-04-27 16:13 | 43.44894 | 5.20033 | 36 ft | 8 kts | 314° |
| 2026-04-27 16:13 | 43.44971 | 5.19920 | 36 ft | 8 kts | 304° |
| 2026-04-27 16:13 | 43.44977 | 5.19846 | 34 ft | 9 kts | 248° |
| 2026-04-27 16:14 | 43.44863 | 5.19810 | 32 ft | 11 kts | 140° |
| 2026-04-27 16:14 | 43.44633 | 5.20134 | 34 ft | 76 kts | 134° |
| 2026-04-27 16:15 | 43.43234 | 5.22148 | 387 ft | 188 kts | 138° |
| 2026-04-27 16:15 | 43.41860 | 5.25205 | 2116 ft | 207 kts | 91° |
| 2026-04-27 16:16 | 43.43122 | 5.28677 | 3384 ft | 215 kts | 34° |
| 2026-04-27 16:16 | 43.46188 | 5.28983 | 4314 ft | 239 kts | 345° |
| 2026-04-27 16:17 | 43.49358 | 5.27525 | 5576 ft | 243 kts | 342° |
| 2026-04-27 16:17 | 43.52592 | 5.26025 | 6721 ft | 250 kts | 341° |
| 2026-04-27 16:18 | 43.55890 | 5.24535 | 7922 ft | 253 kts | 342° |
| 2026-04-27 16:18 | 43.59315 | 5.22997 | 8834 ft | 272 kts | 342° |
| 2026-04-27 16:19 | 43.61164 | 5.22166 | 9261 ft | 286 kts | 342° |
| 2026-04-27 16:19 | 43.63059 | 5.21315 | 10127 ft | 286 kts | 342° |
| 2026-04-27 16:20 | 43.69266 | 5.18521 | 11060 ft | 348 kts | 342° |
| 2026-04-27 16:20 | 43.71638 | 5.17449 | 11231 ft | 369 kts | 341° |
| 2026-04-27 16:20 | 43.76635 | 5.15092 | 12149 ft | 389 kts | 341° |
| 2026-04-27 16:21 | 43.79202 | 5.13868 | 12846 ft | 392 kts | 341° |
| 2026-04-27 16:21 | 43.87049 | 5.10139 | 14672 ft | 403 kts | 341° |
| 2026-04-27 16:22 | 43.89736 | 5.08995 | 15293 ft | 405 kts | 346° |
| 2026-04-27 16:22 | 43.95330 | 5.07640 | 16487 ft | 412 kts | 351° |
| 2026-04-27 16:22 | 43.98141 | 5.07089 | 17055 ft | 415 kts | 351° |
| 2026-04-27 16:23 | 44.01008 | 5.06518 | 17637 ft | 418 kts | 350° |
| 2026-04-27 16:23 | 44.06794 | 5.05286 | 18701 ft | 423 kts | 349° |
| 2026-04-27 16:23 | 44.09711 | 5.04634 | 19175 ft | 426 kts | 349° |
| 2026-04-27 16:24 | 44.12651 | 5.03964 | 19665 ft | 429 kts | 349° |
| 2026-04-27 16:24 | 44.18583 | 5.02598 | 20598 ft | 435 kts | 349° |
| 2026-04-27 16:25 | 44.24544 | 5.01220 | 21538 ft | 440 kts | 349° |
| 2026-04-27 16:25 | 44.30616 | 4.99815 | 22408 ft | 445 kts | 349° |
| 2026-04-27 16:26 | 44.36767 | 4.98390 | 23240 ft | 451 kts | 349° |
| 2026-04-27 16:26 | 44.42990 | 4.96945 | 24000 ft | 455 kts | 349° |
| 2026-04-27 16:27 | 44.49218 | 4.95497 | 24706 ft | 458 kts | 349° |
| 2026-04-27 16:27 | 44.58741 | 4.93274 | 25634 ft | 466 kts | 349° |
| 2026-04-27 16:28 | 44.65154 | 4.91774 | 26293 ft | 469 kts | 349° |
| 2026-04-27 16:28 | 44.71609 | 4.90259 | 26893 ft | 472 kts | 348° |
| 2026-04-27 16:29 | 44.80718 | 4.85722 | 28322 ft | 461 kts | 335° |
| 2026-04-27 16:30 | 44.86610 | 4.82201 | 29170 ft | 459 kts | 335° |
| 2026-04-27 16:30 | 44.92516 | 4.78805 | 30032 ft | 457 kts | 336° |
| 2026-04-27 16:31 | 45.01285 | 4.73853 | 31216 ft | 452 kts | 336° |
| 2026-04-27 16:31 | 45.07106 | 4.70556 | 31946 ft | 449 kts | 336° |
| 2026-04-27 16:32 | 45.12944 | 4.67237 | 32074 ft | 454 kts | 336° |
| 2026-04-27 16:32 | 45.15868 | 4.65573 | 32066 ft | 452 kts | 336° |
| 2026-04-27 16:33 | 45.21817 | 4.62891 | 32088 ft | 450 kts | 347° |
| 2026-04-27 16:33 | 45.24872 | 4.62205 | 32079 ft | 452 kts | 349° |
| 2026-04-27 16:33 | 45.31109 | 4.60971 | 32090 ft | 453 kts | 349° |
| 2026-04-27 16:34 | 45.37352 | 4.59644 | 32094 ft | 454 kts | 348° |
| 2026-04-27 16:34 | 45.43601 | 4.58222 | 32093 ft | 456 kts | 348° |
| 2026-04-27 16:35 | 45.49866 | 4.56770 | 32100 ft | 457 kts | 347° |
| 2026-04-27 16:36 | 45.59241 | 4.54597 | 32090 ft | 457 kts | 347° |
| 2026-04-27 16:36 | 45.65515 | 4.53142 | 32098 ft | 457 kts | 347° |
| 2026-04-27 16:37 | 45.71794 | 4.51682 | 32082 ft | 457 kts | 347° |
| 2026-04-27 16:37 | 45.78064 | 4.50223 | 32081 ft | 456 kts | 347° |
| 2026-04-27 16:38 | 45.84283 | 4.48775 | 32082 ft | 455 kts | 347° |
| 2026-04-27 16:38 | 45.90534 | 4.47316 | 32090 ft | 455 kts | 347° |
| 2026-04-27 16:39 | 45.96781 | 4.45854 | 32085 ft | 455 kts | 347° |
| 2026-04-27 16:39 | 46.03023 | 4.44389 | 32076 ft | 455 kts | 347° |
| 2026-04-27 16:40 | 46.09226 | 4.42931 | 32100 ft | 454 kts | 347° |
| 2026-04-27 16:40 | 46.15463 | 4.41461 | 32087 ft | 455 kts | 347° |
| 2026-04-27 16:41 | 46.21706 | 4.39986 | 32083 ft | 454 kts | 347° |
| 2026-04-27 16:41 | 46.27947 | 4.38507 | 32078 ft | 454 kts | 346° |
| 2026-04-27 16:42 | 46.34108 | 4.36583 | 32092 ft | 452 kts | 342° |
| 2026-04-27 16:42 | 46.40166 | 4.34377 | 32088 ft | 452 kts | 342° |
| 2026-04-27 16:43 | 46.46263 | 4.32170 | 32083 ft | 452 kts | 342° |
| 2026-04-27 16:43 | 46.52369 | 4.30006 | 32087 ft | 452 kts | 342° |
| 2026-04-27 16:44 | 46.58481 | 4.27854 | 32081 ft | 452 kts | 342° |
| 2026-04-27 16:44 | 46.64549 | 4.25716 | 32084 ft | 452 kts | 342° |
| 2026-04-27 16:45 | 46.70652 | 4.23558 | 32089 ft | 451 kts | 342° |
| 2026-04-27 16:45 | 46.76754 | 4.21394 | 32100 ft | 451 kts | 342° |
| 2026-04-27 16:46 | 46.82850 | 4.19227 | 32087 ft | 451 kts | 342° |
| 2026-04-27 16:46 | 46.88907 | 4.17069 | 32085 ft | 451 kts | 342° |
| 2026-04-27 16:47 | 46.95000 | 4.14893 | 32097 ft | 452 kts | 341° |
| 2026-04-27 16:47 | 47.01118 | 4.12703 | 32097 ft | 453 kts | 341° |
| 2026-04-27 16:48 | 47.07237 | 4.10449 | 32097 ft | 452 kts | 338° |
| 2026-04-27 16:48 | 47.13046 | 4.07176 | 32110 ft | 449 kts | 332° |
| 2026-04-27 16:49 | 47.21715 | 4.01839 | 32110 ft | 452 kts | 333° |
| 2026-04-27 16:49 | 47.27541 | 3.98339 | 32104 ft | 453 kts | 333° |
| 2026-04-27 16:50 | 47.33350 | 3.94878 | 32123 ft | 453 kts | 333° |
| 2026-04-27 16:50 | 47.39192 | 3.91392 | 32107 ft | 453 kts | 333° |
| 2026-04-27 16:51 | 47.45027 | 3.87898 | 32105 ft | 452 kts | 333° |
| 2026-04-27 16:51 | 47.50845 | 3.84404 | 32111 ft | 451 kts | 333° |
| 2026-04-27 16:52 | 47.56656 | 3.80908 | 32118 ft | 450 kts | 333° |
| 2026-04-27 16:52 | 47.62418 | 3.77452 | 32113 ft | 449 kts | 333° |
| 2026-04-27 16:53 | 47.68207 | 3.73980 | 32113 ft | 448 kts | 333° |
| 2026-04-27 16:53 | 47.73980 | 3.70505 | 32118 ft | 447 kts | 332° |
| 2026-04-27 16:54 | 47.79744 | 3.67025 | 32123 ft | 447 kts | 332° |
| 2026-04-27 16:54 | 47.85464 | 3.63564 | 32126 ft | 447 kts | 332° |
| 2026-04-27 16:55 | 47.91227 | 3.60068 | 32117 ft | 447 kts | 332° |
| 2026-04-27 16:55 | 47.96968 | 3.56578 | 32144 ft | 446 kts | 332° |
| 2026-04-27 16:56 | 48.02731 | 3.53044 | 32145 ft | 447 kts | 332° |
| 2026-04-27 16:56 | 48.08445 | 3.49522 | 32138 ft | 448 kts | 332° |
| 2026-04-27 16:57 | 48.14209 | 3.45963 | 32129 ft | 448 kts | 332° |
| 2026-04-27 16:57 | 48.19978 | 3.42393 | 32135 ft | 449 kts | 332° |
| 2026-04-27 16:58 | 48.25764 | 3.38805 | 32138 ft | 451 kts | 332° |
| 2026-04-27 16:58 | 48.31527 | 3.35221 | 32140 ft | 452 kts | 332° |
| 2026-04-27 16:59 | 48.37347 | 3.31595 | 32143 ft | 454 kts | 332° |
| 2026-04-27 16:59 | 48.43185 | 3.27936 | 32149 ft | 455 kts | 331° |
| 2026-04-27 17:00 | 48.51938 | 3.22350 | 32144 ft | 456 kts | 331° |
| 2026-04-27 17:01 | 48.57773 | 3.18613 | 32147 ft | 456 kts | 331° |
| 2026-04-27 17:01 | 48.63569 | 3.14897 | 32160 ft | 455 kts | 331° |
| 2026-04-27 17:02 | 48.69398 | 3.11151 | 32149 ft | 455 kts | 331° |
| 2026-04-27 17:02 | 48.75227 | 3.07395 | 32145 ft | 455 kts | 331° |
| 2026-04-27 17:03 | 48.81003 | 3.03666 | 32141 ft | 454 kts | 331° |
| 2026-04-27 17:03 | 48.86728 | 2.99685 | 32150 ft | 449 kts | 326° |
| 2026-04-27 17:04 | 48.92126 | 2.94949 | 32149 ft | 448 kts | 323° |
| 2026-04-27 17:04 | 48.97461 | 2.90127 | 32127 ft | 438 kts | 324° |
| 2026-04-27 17:04 | 49.00044 | 2.87830 | 32129 ft | 421 kts | 324° |
| 2026-04-27 17:05 | 49.02532 | 2.85635 | 32126 ft | 405 kts | 323° |
| 2026-04-27 17:05 | 49.04928 | 2.83526 | 32152 ft | 389 kts | 323° |
| 2026-04-27 17:05 | 49.07199 | 2.81527 | 32134 ft | 375 kts | 323° |
| 2026-04-27 17:06 | 49.11544 | 2.77695 | 32136 ft | 346 kts | 323° |
| 2026-04-27 17:06 | 49.13586 | 2.75891 | 32130 ft | 332 kts | 323° |
| 2026-04-27 17:06 | 49.15547 | 2.74157 | 32134 ft | 318 kts | 322° |
| 2026-04-27 17:06 | 49.17414 | 2.72505 | 32130 ft | 303 kts | 322° |
| 2026-04-27 17:07 | 49.19194 | 2.70929 | 32119 ft | 288 kts | 322° |
| 2026-04-27 17:07 | 49.20883 | 2.69431 | 32013 ft | 275 kts | 321° |
| 2026-04-27 17:07 | 49.22556 | 2.67951 | 31139 ft | 290 kts | 323° |
| 2026-04-27 17:07 | 49.24403 | 2.66406 | 29865 ft | 321 kts | 323° |
| 2026-04-27 17:08 | 49.26361 | 2.64653 | 29276 ft | 324 kts | 323° |
| 2026-04-27 17:08 | 49.28251 | 2.62933 | 29310 ft | 309 kts | 323° |
| 2026-04-27 17:08 | 49.30068 | 2.61286 | 29243 ft | 297 kts | 323° |
| 2026-04-27 17:08 | 49.31194 | 2.60269 | 29209 ft | 289 kts | 323° |
| 2026-04-27 17:12 | 49.33645 | 2.58065 | 29063 ft | 271 kts | 323° |
| 2026-04-27 17:12 | 49.35269 | 2.56602 | 28664 ft | 270 kts | 323° |
| 2026-04-27 17:12 | 49.36882 | 2.55151 | 28294 ft | 268 kts | 323° |
| 2026-04-27 17:13 | 49.38118 | 2.54040 | 28033 ft | 265 kts | 323° |
| 2026-04-27 17:13 | 49.39038 | 2.53214 | 27844 ft | 263 kts | 323° |
| 2026-04-27 17:13 | 49.40005 | 2.52346 | 27622 ft | 261 kts | 323° |
| 2026-04-27 17:16 | 49.41453 | 2.51047 | 27321 ft | 258 kts | 323° |
| 2026-04-27 17:16 | 49.42987 | 2.49589 | 26622 ft | 267 kts | 319° |
| 2026-04-27 17:16 | 49.44472 | 2.47924 | 25904 ft | 281 kts | 320° |
| 2026-04-27 17:18 | 49.45510 | 2.46813 | 25798 ft | 275 kts | 323° |
| 2026-04-27 17:18 | 49.46227 | 2.46145 | 25852 ft | 267 kts | 327° |
| 2026-04-27 17:19 | 49.46750 | 2.45724 | 25907 ft | 262 kts | 330° |
| 2026-04-27 17:19 | 49.48323 | 2.44804 | 25789 ft | 256 kts | 335° |
| 2026-04-27 17:19 | 49.49215 | 2.44220 | 25569 ft | 252 kts | 326° |
| 2026-04-27 17:20 | 49.49877 | 2.43682 | 25262 ft | 258 kts | 327° |
| 2026-04-27 17:20 | 49.49940 | 2.43632 | 25239 ft | 259 kts | 327° |
| 2026-04-27 17:20 | 49.50516 | 2.43176 | 24889 ft | 268 kts | 328° |
| 2026-04-27 17:21 | 49.51691 | 2.42326 | 24379 ft | 282 kts | 333° |
| 2026-04-27 17:21 | 49.53548 | 2.41382 | 24242 ft | 275 kts | 338° |
| 2026-04-27 17:21 | 49.55303 | 2.40553 | 24218 ft | 261 kts | 336° |
| 2026-04-27 17:21 | 49.55805 | 2.40307 | 24198 ft | 257 kts | 336° |
| 2026-04-27 17:23 | 49.56962 | 2.39739 | 24171 ft | 248 kts | 336° |
| 2026-04-27 17:24 | 49.58571 | 2.38967 | 24038 ft | 238 kts | 336° |
| 2026-04-27 17:24 | 49.59765 | 2.38400 | 23809 ft | 236 kts | 337° |
| 2026-04-27 17:26 | 49.60362 | 2.38116 | 23621 ft | 250 kts | 337° |
| 2026-04-27 17:26 | 49.62180 | 2.37247 | 22776 ft | 298 kts | 338° |
| 2026-04-27 17:27 | 49.64293 | 2.36261 | 22300 ft | 332 kts | 339° |
| 2026-04-27 17:27 | 49.66544 | 2.35238 | 22562 ft | 342 kts | 340° |
| 2026-04-27 17:27 | 49.68858 | 2.34195 | 22842 ft | 351 kts | 340° |
| 2026-04-27 17:27 | 49.71203 | 2.33133 | 23121 ft | 360 kts | 340° |
| 2026-04-27 17:28 | 49.73650 | 2.32078 | 23423 ft | 371 kts | 345° |
| 2026-04-27 17:28 | 49.76285 | 2.32033 | 23671 ft | 392 kts | 6° |
| 2026-04-27 17:28 | 49.81188 | 2.36396 | 23847 ft | 433 kts | 40° |
| 2026-04-27 17:29 | 49.83365 | 2.39711 | 23923 ft | 445 kts | 42° |
| 2026-04-27 17:29 | 49.85580 | 2.43163 | 24001 ft | 457 kts | 42° |
| 2026-04-27 17:29 | 49.87859 | 2.46665 | 24038 ft | 467 kts | 40° |
| 2026-04-27 17:29 | 49.90206 | 2.50132 | 24035 ft | 476 kts | 40° |
| 2026-04-27 17:30 | 49.92590 | 2.53691 | 24312 ft | 475 kts | 41° |
| 2026-04-27 17:30 | 49.97379 | 2.61074 | 24219 ft | 492 kts | 41° |
| 2026-04-27 17:30 | 49.99787 | 2.64767 | 24196 ft | 481 kts | 41° |
| 2026-04-27 17:31 | 50.02159 | 2.68399 | 24208 ft | 478 kts | 41° |
| 2026-04-27 17:31 | 50.04511 | 2.71998 | 24087 ft | 469 kts | 41° |
| 2026-04-27 17:31 | 50.06828 | 2.75543 | 23402 ft | 468 kts | 41° |
| 2026-04-27 17:31 | 50.09119 | 2.79054 | 22697 ft | 458 kts | 41° |
| 2026-04-27 17:32 | 50.11355 | 2.82484 | 21585 ft | 456 kts | 41° |
| 2026-04-27 17:32 | 50.15828 | 2.89360 | 19820 ft | 444 kts | 42° |
| 2026-04-27 17:32 | 50.17970 | 2.92665 | 19629 ft | 425 kts | 42° |
| 2026-04-27 17:33 | 50.20087 | 2.95932 | 19393 ft | 432 kts | 42° |
| 2026-04-27 17:33 | 50.22246 | 2.99262 | 19242 ft | 439 kts | 42° |
| 2026-04-27 17:33 | 50.24424 | 3.02628 | 19199 ft | 442 kts | 42° |
| 2026-04-27 17:33 | 50.26613 | 3.06019 | 19188 ft | 443 kts | 42° |
| 2026-04-27 17:34 | 50.28806 | 3.09423 | 19188 ft | 444 kts | 42° |
| 2026-04-27 17:34 | 50.30981 | 3.12803 | 19197 ft | 451 kts | 42° |
| 2026-04-27 17:34 | 50.33206 | 3.16265 | 19184 ft | 451 kts | 42° |
| 2026-04-27 17:34 | 50.35427 | 3.19728 | 19184 ft | 450 kts | 42° |
| 2026-04-27 17:35 | 50.37643 | 3.23186 | 19203 ft | 449 kts | 42° |
| 2026-04-27 17:35 | 50.39856 | 3.26644 | 19195 ft | 449 kts | 42° |
| 2026-04-27 17:35 | 50.42067 | 3.30097 | 19189 ft | 449 kts | 42° |
| 2026-04-27 17:35 | 50.44266 | 3.33526 | 19033 ft | 446 kts | 42° |
| 2026-04-27 17:36 | 50.46441 | 3.36919 | 18375 ft | 445 kts | 43° |
| 2026-04-27 17:36 | 50.48625 | 3.40331 | 17733 ft | 441 kts | 43° |
| 2026-04-27 17:36 | 50.50788 | 3.43717 | 17132 ft | 437 kts | 43° |
| 2026-04-27 17:36 | 50.52924 | 3.47069 | 16556 ft | 432 kts | 43° |
| 2026-04-27 17:37 | 50.54746 | 3.50795 | 16019 ft | 431 kts | 62° |
| 2026-04-27 17:37 | 50.55776 | 3.55164 | 15710 ft | 423 kts | 72° |
| 2026-04-27 17:37 | 50.56589 | 3.59587 | 15311 ft | 418 kts | 73° |
| 2026-04-27 17:37 | 50.57364 | 3.63904 | 14945 ft | 415 kts | 73° |
| 2026-04-27 17:38 | 50.58157 | 3.68289 | 14573 ft | 418 kts | 73° |
| 2026-04-27 17:38 | 50.58963 | 3.72693 | 14207 ft | 419 kts | 73° |
| 2026-04-27 17:38 | 50.59773 | 3.77072 | 13808 ft | 414 kts | 73° |
| 2026-04-27 17:38 | 50.60577 | 3.81393 | 13390 ft | 410 kts | 73° |
| 2026-04-27 17:39 | 50.61377 | 3.85680 | 13003 ft | 405 kts | 73° |
| 2026-04-27 17:39 | 50.62163 | 3.89893 | 12636 ft | 397 kts | 73° |
| 2026-04-27 17:39 | 50.62934 | 3.94033 | 12275 ft | 390 kts | 73° |
| 2026-04-27 17:39 | 50.63688 | 3.98092 | 11914 ft | 383 kts | 73° |
| 2026-04-27 17:40 | 50.64428 | 4.02087 | 11562 ft | 377 kts | 73° |
| 2026-04-27 17:40 | 50.65144 | 4.05961 | 11225 ft | 371 kts | 73° |
| 2026-04-27 17:40 | 50.65859 | 4.09832 | 10891 ft | 365 kts | 73° |
| 2026-04-27 17:40 | 50.66560 | 4.13639 | 10560 ft | 357 kts | 73° |
| 2026-04-27 17:41 | 50.67237 | 4.17325 | 10246 ft | 343 kts | 73° |
| 2026-04-27 17:41 | 50.67884 | 4.20854 | 10119 ft | 324 kts | 73° |
| 2026-04-27 17:41 | 50.68402 | 4.24190 | 10083 ft | 305 kts | 85° |
| 2026-04-27 17:41 | 50.68147 | 4.27376 | 10012 ft | 286 kts | 111° |
| 2026-04-27 17:42 | 50.67186 | 4.30075 | 9591 ft | 281 kts | 130° |
| 2026-04-27 17:42 | 50.65785 | 4.32131 | 9055 ft | 280 kts | 149° |
| 2026-04-27 17:42 | 50.64103 | 4.33620 | 8698 ft | 275 kts | 153° |
| 2026-04-27 17:42 | 50.62417 | 4.35013 | 8365 ft | 272 kts | 154° |
| 2026-04-27 17:43 | 50.60754 | 4.36383 | 8111 ft | 270 kts | 154° |
| 2026-04-27 17:43 | 50.59097 | 4.37756 | 7858 ft | 269 kts | 153° |
| 2026-04-27 17:43 | 50.57451 | 4.39131 | 7615 ft | 268 kts | 153° |
| 2026-04-27 17:43 | 50.55806 | 4.40505 | 7384 ft | 269 kts | 153° |
| 2026-04-27 17:44 | 50.54146 | 4.41893 | 7142 ft | 272 kts | 153° |
| 2026-04-27 17:44 | 50.52446 | 4.43247 | 6884 ft | 276 kts | 161° |
| 2026-04-27 17:44 | 50.50561 | 4.43580 | 6619 ft | 274 kts | 191° |
| 2026-04-27 17:44 | 50.48871 | 4.42450 | 6363 ft | 268 kts | 220° |
| 2026-04-27 17:45 | 50.47706 | 4.40234 | 6106 ft | 263 kts | 246° |
| 2026-04-27 17:45 | 50.47233 | 4.37515 | 5868 ft | 258 kts | 268° |
| 2026-04-27 17:45 | 50.47286 | 4.34749 | 5766 ft | 245 kts | 275° |
| 2026-04-27 17:45 | 50.47428 | 4.32174 | 5624 ft | 229 kts | 276° |
| 2026-04-27 17:46 | 50.47562 | 4.29763 | 5473 ft | 215 kts | 276° |
| 2026-04-27 17:46 | 50.47662 | 4.27418 | 5051 ft | 214 kts | 266° |
| 2026-04-27 17:46 | 50.47185 | 4.25274 | 4726 ft | 209 kts | 242° |
| 2026-04-27 17:46 | 50.46536 | 4.23254 | 4460 ft | 204 kts | 246° |
| 2026-04-27 17:47 | 50.45950 | 4.21276 | 4292 ft | 198 kts | 246° |
| 2026-04-27 17:47 | 50.45559 | 4.19985 | 4168 ft | 199 kts | 241° |
| 2026-04-27 17:47 | 50.44112 | 4.18335 | 3924 ft | 196 kts | 182° |
| 2026-04-27 17:47 | 50.42793 | 4.18685 | 3808 ft | 195 kts | 160° |
| 2026-04-27 17:48 | 50.41520 | 4.19434 | 3601 ft | 196 kts | 152° |
| 2026-04-27 17:48 | 50.40349 | 4.20460 | 3398 ft | 191 kts | 133° |
| 2026-04-27 17:48 | 50.39748 | 4.22161 | 3239 ft | 178 kts | 97° |
| 2026-04-27 17:48 | 50.39828 | 4.24049 | 3072 ft | 172 kts | 69° |
| 2026-04-27 17:49 | 50.40278 | 4.25740 | 2924 ft | 165 kts | 64° |
| 2026-04-27 17:49 | 50.40748 | 4.27348 | 2778 ft | 161 kts | 63° |
| 2026-04-27 17:49 | 50.41210 | 4.28923 | 2656 ft | 154 kts | 63° |
| 2026-04-27 17:49 | 50.41648 | 4.30416 | 2504 ft | 145 kts | 63° |
| 2026-04-27 17:50 | 50.42060 | 4.31816 | 2288 ft | 139 kts | 63° |
| 2026-04-27 17:50 | 50.42848 | 4.34504 | 1952 ft | 137 kts | 63° |
| 2026-04-27 17:50 | 50.43252 | 4.35883 | 1761 ft | 141 kts | 63° |
| 2026-04-27 17:51 | 50.43666 | 4.37287 | 1574 ft | 140 kts | 63° |
| 2026-04-27 17:51 | 50.44065 | 4.38653 | 1381 ft | 137 kts | 63° |
| 2026-04-27 17:51 | 50.44461 | 4.40020 | 1221 ft | 139 kts | 62° |
| 2026-04-27 17:51 | 50.44856 | 4.41386 | 1035 ft | 136 kts | 62° |
| 2026-04-27 17:52 | 50.45244 | 4.42747 | 824 ft | 138 kts | 63° |
| 2026-04-27 17:52 | 50.45647 | 4.44129 | 639 ft | 142 kts | 63° |
| 2026-04-27 17:52 | 50.46032 | 4.45441 | 592 ft | 120 kts | 65° |
| 2026-04-27 17:52 | 50.46309 | 4.46402 | 589 ft | 54 kts | 65° |
| 2026-04-27 17:53 | 50.46411 | 4.46752 | 592 ft | 19 kts | 65° |
| 2026-04-27 17:53 | 50.46475 | 4.46887 | 593 ft | 15 kts | 17° |
| 2026-04-27 17:53 | 50.46558 | 4.46860 | 593 ft | 3 kts | 336° |
| 2026-04-27 17:53 | 50.46576 | 4.46848 | 593 ft | 3 kts | 336° |
| 2026-04-27 17:54 | 50.46602 | 4.46829 | 592 ft | 5 kts | 335° |
| 2026-04-27 17:54 | 50.46646 | 4.46798 | 590 ft | 8 kts | 336° |
| 2026-04-27 17:54 | 50.46700 | 4.46799 | 588 ft | 9 kts | 37° |
| 2026-04-27 17:54 | 50.46727 | 4.46876 | 587 ft | 5 kts | 66° |
| 2026-04-27 17:55 | 50.46742 | 4.46929 | 586 ft | 6 kts | 65° |
| 2026-04-27 17:55 | 50.46756 | 4.46978 | 586 ft | 0 kts | 65° |
| 2026-04-27 17:55 | 50.46760 | 4.46989 | 586 ft | 2 kts | 65° |
| 2026-04-27 17:55 | 50.46769 | 4.47020 | 585 ft | 4 kts | 66° |
| 2026-04-27 17:56 | 50.46782 | 4.47068 | 586 ft | 6 kts | 66° |
| 2026-04-27 17:56 | 50.46802 | 4.47134 | 586 ft | 8 kts | 65° |
| 2026-04-27 17:56 | 50.46827 | 4.47222 | 586 ft | 5 kts | 65° |
| 2026-04-27 17:56 | 50.46851 | 4.47258 | 584 ft | 6 kts | 353° |
| 2026-04-27 17:57 | 50.46875 | 4.47245 | 583 ft | 2 kts | 339° |
| 2026-04-27 17:57 | 50.46928 | 4.47287 | 584 ft | 0 kts | 335° |